createdAt,value
2023-05-19T00:00:21.400Z,13.79
2023-05-19T00:02:51.019Z,12.76
2023-05-19T00:05:19.428Z,13.52
2023-05-19T00:07:47.990Z,13.86
2023-05-19T00:10:17.171Z,14.18
2023-05-19T00:12:45.988Z,13.55
2023-05-19T00:15:14.604Z,12.20
2023-05-19T00:17:42.530Z,12.64
2023-05-19T00:20:12.808Z,13.20
2023-05-19T00:22:40.370Z,13.24
2023-05-19T00:25:08.482Z,12.95
2023-05-19T00:27:35.929Z,12.54
2023-05-19T00:30:03.344Z,12.11
2023-05-19T00:32:31.137Z,12.05
2023-05-19T00:34:58.801Z,12.11
2023-05-19T00:37:27.798Z,11.55
2023-05-19T00:39:55.230Z,11.93
2023-05-19T00:42:22.823Z,12.09
2023-05-19T00:44:50.394Z,12.22
2023-05-19T00:47:17.831Z,12.10
2023-05-19T00:49:45.262Z,11.96
2023-05-19T00:52:12.745Z,11.70
2023-05-19T00:54:41.711Z,11.56
2023-05-19T00:57:09.221Z,11.60
2023-05-19T00:59:36.798Z,11.85
2023-05-19T01:02:04.432Z,11.76
2023-05-19T01:04:34.930Z,11.83
2023-05-19T01:07:02.482Z,12.19
2023-05-19T01:09:30.644Z,11.17
2023-05-19T01:11:59.673Z,11.40
2023-05-19T01:14:27.892Z,11.45
2023-05-19T01:17:05.296Z,11.01
2023-05-19T01:19:48.721Z,11.15
2023-05-19T01:22:29.261Z,11.90
2023-05-19T01:25:20.810Z,12.32
2023-05-19T01:28:07.321Z,11.42
2023-05-19T01:30:39.923Z,12.07
2023-05-19T01:33:10.068Z,11.66
2023-05-19T01:35:38.837Z,11.63
2023-05-19T01:38:09.662Z,11.83
2023-05-19T01:40:38.611Z,11.78
2023-05-19T01:43:08.780Z,11.07
2023-05-19T01:45:38.003Z,11.09
2023-05-19T01:48:08.543Z,11.17
2023-05-19T01:50:38.416Z,11.40
2023-05-19T01:53:06.129Z,11.34
2023-05-19T01:55:33.684Z,10.87
2023-05-19T01:58:08.479Z,10.86
2023-05-19T02:00:48.276Z,11.50
2023-05-19T02:03:33.644Z,11.29
2023-05-19T02:06:09.586Z,11.09
2023-05-19T02:08:44.335Z,10.91
2023-05-19T02:11:21.630Z,11.82
2023-05-19T02:13:52.108Z,12.22
2023-05-19T02:16:27.455Z,12.06
2023-05-19T02:18:56.504Z,11.40
2023-05-19T02:21:24.031Z,10.97
2023-05-19T02:23:51.584Z,10.49
2023-05-19T02:26:19.039Z,10.86
2023-05-19T02:28:46.474Z,10.62
2023-05-19T02:31:13.920Z,11.62
2023-05-19T02:33:43.038Z,12.02
2023-05-19T02:36:10.600Z,12.47
2023-05-19T02:38:38.064Z,12.34
2023-05-19T02:41:05.621Z,12.68
2023-05-19T02:43:33.063Z,11.31
2023-05-19T02:46:00.728Z,12.08
2023-05-19T02:48:28.189Z,11.73
2023-05-19T02:50:56.958Z,11.97
2023-05-19T02:53:24.538Z,12.24
2023-05-19T02:55:52.238Z,12.24
2023-05-19T02:58:20.676Z,11.51
2023-05-19T03:00:48.184Z,11.57
2023-05-19T03:03:15.725Z,11.36
2023-05-19T03:05:43.609Z,11.85
2023-05-19T03:08:12.363Z,11.65
2023-05-19T03:10:39.924Z,11.18
2023-05-19T03:13:07.363Z,10.76
2023-05-19T03:15:35.260Z,11.63
2023-05-19T03:18:02.765Z,11.69
2023-05-19T03:20:30.795Z,11.80
2023-05-19T03:22:58.680Z,12.31
2023-05-19T03:25:27.509Z,10.88
2023-05-19T03:27:54.916Z,11.00
2023-05-19T03:30:22.417Z,10.67
2023-05-19T03:32:52.137Z,10.82
2023-05-19T03:35:19.960Z,10.67
2023-05-19T03:37:47.427Z,10.60
2023-05-19T03:40:15.499Z,10.44
2023-05-19T03:42:44.449Z,11.10
2023-05-19T03:45:12.200Z,10.90
2023-05-19T03:47:39.718Z,11.28
2023-05-19T03:50:08.186Z,11.49
2023-05-19T03:52:36.257Z,11.98
2023-05-19T03:55:03.737Z,12.65
2023-05-19T03:57:31.204Z,12.77
2023-05-19T03:59:59.947Z,13.08
2023-05-19T04:02:27.428Z,13.66
2023-05-19T04:04:54.970Z,13.14
2023-05-19T04:07:22.532Z,13.54
2023-05-19T04:09:50.126Z,14.98
2023-05-19T04:12:17.720Z,14.69
2023-05-19T04:14:45.227Z,17.03
2023-05-19T04:17:14.074Z,17.85
2023-05-19T04:19:41.544Z,17.57
2023-05-19T04:22:08.990Z,16.74
2023-05-19T04:24:36.538Z,17.82
2023-05-19T04:27:04.809Z,15.87
2023-05-19T04:29:32.656Z,15.98
2023-05-19T04:32:00.937Z,16.20
2023-05-19T04:34:29.693Z,16.20
2023-05-19T04:36:57.452Z,15.52
2023-05-19T04:39:24.908Z,15.50
2023-05-19T04:41:54.012Z,14.84
2023-05-19T04:44:21.438Z,14.89
2023-05-19T04:46:49.968Z,14.03
2023-05-19T04:49:19.201Z,13.48
2023-05-19T04:51:50.266Z,14.30
2023-05-19T04:54:18.074Z,13.22
2023-05-19T04:56:45.654Z,12.30
2023-05-19T04:59:13.099Z,13.41
2023-05-19T05:01:41.010Z,12.89
2023-05-19T05:04:08.683Z,13.35
2023-05-19T05:06:38.712Z,12.83
2023-05-19T05:09:07.734Z,13.29
2023-05-19T05:11:35.761Z,12.98
2023-05-19T05:14:03.719Z,12.62
2023-05-19T05:16:32.012Z,13.60
2023-05-19T05:19:00.158Z,13.84
2023-05-19T05:21:28.955Z,13.29
2023-05-19T05:23:56.978Z,13.66
2023-05-19T05:26:31.286Z,14.67
2023-05-19T05:28:58.707Z,14.96
2023-05-19T05:31:26.427Z,14.76
2023-05-19T05:33:54.144Z,14.16
2023-05-19T05:36:21.607Z,13.43
2023-05-19T05:38:49.060Z,13.99
2023-05-19T05:41:16.806Z,14.09
2023-05-19T05:43:45.636Z,13.65
2023-05-19T05:46:13.125Z,14.24
2023-05-19T05:48:42.679Z,14.12
2023-05-19T05:51:10.864Z,14.43
2023-05-19T05:53:42.900Z,15.15
2023-05-19T05:56:11.938Z,14.69
2023-05-19T05:58:40.734Z,15.52
2023-05-19T06:01:11.480Z,14.70
2023-05-19T06:03:40.153Z,15.10
2023-05-19T06:06:08.045Z,15.42
2023-05-19T06:08:35.577Z,16.47
2023-05-19T06:11:08.179Z,15.13
2023-05-19T06:13:36.097Z,16.56
2023-05-19T06:16:03.803Z,15.91
2023-05-19T06:18:32.687Z,16.14
2023-05-19T06:21:01.650Z,15.27
2023-05-19T06:23:29.232Z,15.82
2023-05-19T06:25:57.753Z,15.35
2023-05-19T06:28:25.227Z,15.76
2023-05-19T06:30:52.665Z,15.23
2023-05-19T06:33:20.100Z,16.29
2023-05-19T06:35:48.850Z,16.25
2023-05-19T06:38:16.390Z,15.66
2023-05-19T06:40:43.965Z,16.31
2023-05-19T06:43:11.492Z,17.13
2023-05-19T06:45:38.942Z,16.89
2023-05-19T06:48:06.703Z,16.34
2023-05-19T06:50:34.404Z,16.83
2023-05-19T06:53:03.407Z,15.48
2023-05-19T06:55:30.898Z,15.92
2023-05-19T06:57:58.396Z,15.70
2023-05-19T07:00:25.911Z,14.87
2023-05-19T07:02:53.466Z,14.73
2023-05-19T07:05:21.635Z,15.25
2023-05-19T07:07:49.109Z,15.77
2023-05-19T07:10:17.908Z,16.47
2023-05-19T07:12:45.413Z,16.02
2023-05-19T07:15:12.858Z,17.08
2023-05-19T07:17:40.311Z,16.36
2023-05-19T07:20:10.026Z,16.62
2023-05-19T07:22:38.538Z,16.63
2023-05-19T07:25:06.581Z,16.69
2023-05-19T07:27:35.866Z,15.87
2023-05-19T07:30:03.982Z,16.33
2023-05-19T07:32:31.503Z,17.01
2023-05-19T07:34:59.079Z,16.67
2023-05-19T07:37:26.998Z,17.41
2023-05-19T07:39:54.559Z,16.92
2023-05-19T07:42:22.027Z,16.13
2023-05-19T07:44:50.848Z,15.72
2023-05-19T07:47:18.299Z,16.36
2023-05-19T07:49:46.053Z,17.09
2023-05-19T07:52:13.522Z,17.12
2023-05-19T07:54:41.114Z,16.63
2023-05-19T07:57:08.585Z,15.92
2023-05-19T07:59:36.047Z,17.24
2023-05-19T08:02:04.939Z,17.63
2023-05-19T08:04:32.941Z,17.48
2023-05-19T08:07:00.546Z,17.32
2023-05-19T08:09:27.988Z,17.07
2023-05-19T08:11:55.647Z,17.14
2023-05-19T08:14:23.185Z,17.21
2023-05-19T08:16:51.733Z,17.33
2023-05-19T08:19:20.792Z,17.01
2023-05-19T08:21:48.357Z,17.30
2023-05-19T08:24:15.866Z,16.97
2023-05-19T08:26:44.838Z,17.21
2023-05-19T08:29:12.349Z,16.84
2023-05-19T08:31:39.818Z,16.86
2023-05-19T08:34:07.338Z,16.85
2023-05-19T08:36:36.093Z,16.71
2023-05-19T08:39:03.725Z,16.97
2023-05-19T08:41:31.269Z,17.03
2023-05-19T08:43:58.943Z,17.46
2023-05-19T08:46:26.910Z,17.38
2023-05-19T08:48:57.395Z,17.24
2023-05-19T08:51:32.335Z,17.91
2023-05-19T08:54:08.908Z,17.47
2023-05-19T08:56:36.888Z,16.72
2023-05-19T08:59:04.565Z,17.43
2023-05-19T09:01:32.841Z,17.61
2023-05-19T09:04:00.633Z,17.26
2023-05-19T09:06:28.276Z,17.06
2023-05-19T09:08:55.902Z,17.45
2023-05-19T09:11:24.689Z,17.60
2023-05-19T09:13:52.131Z,18.11
2023-05-19T09:16:19.800Z,18.50
2023-05-19T09:18:55.930Z,18.89
2023-05-19T09:21:30.940Z,19.77
2023-05-19T09:23:59.023Z,19.30
2023-05-19T09:26:37.474Z,19.13
2023-05-19T09:29:11.901Z,19.56
2023-05-19T09:31:39.680Z,18.81
2023-05-19T09:34:13.645Z,19.27
2023-05-19T09:36:42.213Z,19.08
2023-05-19T09:39:16.636Z,19.33
2023-05-19T09:41:45.868Z,18.84
2023-05-19T09:44:14.280Z,18.85
2023-05-19T09:46:48.809Z,18.89
2023-05-19T09:49:20.491Z,18.55
2023-05-19T09:51:50.362Z,18.27
2023-05-19T09:54:18.036Z,18.32
2023-05-19T09:56:47.189Z,18.30
2023-05-19T09:59:16.335Z,18.10
2023-05-19T10:01:46.489Z,17.99
2023-05-19T10:04:15.584Z,18.19
2023-05-19T10:06:43.720Z,18.11
2023-05-19T10:09:11.659Z,18.15
2023-05-19T10:11:39.930Z,17.84
2023-05-19T10:14:09.310Z,17.72
2023-05-19T10:16:37.242Z,17.76
2023-05-19T10:19:06.114Z,17.58
2023-05-19T10:21:33.573Z,18.25
2023-05-19T10:24:01.008Z,17.73
2023-05-19T10:26:29.598Z,18.03
2023-05-19T10:28:58.405Z,17.66
2023-05-19T10:31:27.976Z,17.72
2023-05-19T10:34:06.495Z,18.61
2023-05-19T10:36:46.553Z,18.22
2023-05-19T10:39:20.031Z,18.50
2023-05-19T10:41:54.739Z,17.90
2023-05-19T10:44:35.371Z,18.08
2023-05-19T10:47:07.386Z,18.25
2023-05-19T10:49:37.030Z,18.45
2023-05-19T10:52:05.306Z,17.92
2023-05-19T10:54:43.296Z,18.23
2023-05-19T10:57:16.231Z,18.57
2023-05-19T10:59:44.582Z,18.30
2023-05-19T11:02:40.996Z,18.16
2023-05-19T11:05:10.551Z,18.49
2023-05-19T11:07:38.156Z,17.90
2023-05-19T11:10:09.280Z,17.81
2023-05-19T11:12:42.676Z,18.61
2023-05-19T11:15:13.138Z,18.60
2023-05-19T11:17:43.239Z,18.29
2023-05-19T11:20:23.443Z,18.18
2023-05-19T11:23:07.061Z,18.09
2023-05-19T11:25:46.748Z,18.38
2023-05-19T11:28:17.283Z,18.28
2023-05-19T11:30:46.561Z,18.59
2023-05-19T11:33:15.446Z,18.46
2023-05-19T11:35:44.472Z,18.45
2023-05-19T11:38:12.417Z,18.50
2023-05-19T11:40:40.436Z,19.18
2023-05-19T11:43:07.929Z,18.43
2023-05-19T11:45:36.013Z,18.11
2023-05-19T11:48:04.035Z,18.26
2023-05-19T11:50:33.398Z,17.78
2023-05-19T11:53:02.116Z,18.25
2023-05-19T11:55:30.700Z,18.58
2023-05-19T12:00:30.990Z,19.44
2023-05-19T12:02:58.907Z,19.06
2023-05-19T12:05:28.133Z,18.64
2023-05-19T12:07:57.045Z,18.60
2023-05-19T12:10:25.249Z,18.87
2023-05-19T12:12:53.334Z,20.14
2023-05-19T12:15:21.913Z,19.29
2023-05-19T12:17:51.236Z,19.58
2023-05-19T12:20:19.988Z,20.02
2023-05-19T12:22:48.754Z,20.42
2023-05-19T12:25:18.843Z,19.29
2023-05-19T12:27:48.557Z,19.83
2023-05-19T12:30:17.154Z,19.97
2023-05-19T12:32:44.835Z,19.77
2023-05-19T12:35:12.610Z,19.36
2023-05-19T12:37:42.902Z,18.87
2023-05-19T12:40:11.434Z,19.22
2023-05-19T12:42:45.755Z,19.00
2023-05-19T12:45:13.223Z,19.36
2023-05-19T12:47:40.863Z,19.94
2023-05-19T12:50:10.309Z,20.31
2023-05-19T12:52:43.812Z,19.49
2023-05-19T12:55:12.257Z,19.07
2023-05-19T12:57:42.936Z,19.10
2023-05-19T13:00:17.593Z,19.11
2023-05-19T13:03:00.566Z,19.01
2023-05-19T13:05:29.143Z,18.90
2023-05-19T13:07:57.700Z,19.05
2023-05-19T13:10:26.982Z,18.63
2023-05-19T13:12:56.903Z,18.42
2023-05-19T13:15:26.167Z,18.78
2023-05-19T13:17:55.229Z,18.54
2023-05-19T13:20:22.884Z,18.88
2023-05-19T13:22:51.347Z,19.18
2023-05-19T13:25:18.944Z,19.29
2023-05-19T13:27:46.942Z,19.44
2023-05-19T13:30:16.717Z,19.96
2023-05-19T13:32:44.202Z,19.27
2023-05-19T13:35:12.042Z,19.45
2023-05-19T13:37:40.084Z,18.91
2023-05-19T13:40:08.836Z,18.98
2023-05-19T13:42:37.167Z,19.35
2023-05-19T13:45:05.824Z,18.88
2023-05-19T13:47:34.802Z,18.79
2023-05-19T13:50:04.499Z,18.54
2023-05-19T13:52:32.531Z,18.70
2023-05-19T13:55:00.242Z,18.59
2023-05-19T13:57:27.932Z,18.96
2023-05-19T14:00:02.803Z,18.61
2023-05-19T14:02:32.096Z,18.83
2023-05-19T14:05:00.952Z,18.97
2023-05-19T14:07:28.603Z,18.83
2023-05-19T14:09:56.281Z,19.01
2023-05-19T14:12:33.902Z,19.91
2023-05-19T14:15:09.066Z,19.82
2023-05-19T14:17:37.333Z,20.14
2023-05-19T14:20:07.428Z,19.29
2023-05-19T14:22:34.948Z,19.38
2023-05-19T14:25:02.958Z,19.17
2023-05-19T14:27:31.257Z,18.92
2023-05-19T14:29:58.790Z,18.69
2023-05-19T14:32:28.657Z,18.62
2023-05-19T14:34:57.715Z,19.04
2023-05-19T14:37:28.959Z,18.66
2023-05-19T14:40:01.395Z,19.81
2023-05-19T14:42:28.961Z,19.42
2023-05-19T14:44:56.651Z,20.19
2023-05-19T14:47:25.650Z,19.58
2023-05-19T14:49:53.882Z,19.57
2023-05-19T14:52:34.648Z,19.58
2023-05-19T14:55:02.162Z,18.79
2023-05-19T14:57:31.563Z,19.41
2023-05-19T14:59:59.019Z,18.77
2023-05-19T15:02:27.613Z,18.63
2023-05-19T15:04:56.963Z,18.83
2023-05-19T15:07:24.670Z,18.79
2023-05-19T15:09:53.604Z,19.54
2023-05-19T15:12:21.103Z,19.18
2023-05-19T15:14:48.538Z,18.97
2023-05-19T15:17:16.162Z,18.25
2023-05-19T15:19:43.662Z,18.75
2023-05-19T15:22:11.135Z,19.20
2023-05-19T15:24:38.564Z,18.60
2023-05-19T15:27:08.405Z,19.05
2023-05-19T15:29:35.958Z,18.73
2023-05-19T15:32:03.600Z,18.33
2023-05-19T15:34:31.195Z,18.18
2023-05-19T15:36:58.703Z,18.01
2023-05-19T15:39:26.314Z,18.62
2023-05-19T15:41:53.821Z,18.38
2023-05-19T15:44:22.666Z,18.43
2023-05-19T15:46:50.195Z,19.04
2023-05-19T15:49:18.231Z,19.23
2023-05-19T15:51:46.048Z,18.58
2023-05-19T15:54:13.518Z,18.20
2023-05-19T15:56:40.985Z,18.22
2023-05-19T15:59:08.419Z,18.17
2023-05-19T16:01:37.569Z,18.12
2023-05-19T16:04:05.724Z,18.04
2023-05-19T16:06:33.335Z,17.99
2023-05-19T16:09:00.940Z,18.00
2023-05-19T16:11:28.575Z,18.64
2023-05-19T16:13:56.052Z,19.12
2023-05-19T16:16:23.563Z,18.86
2023-05-19T16:18:52.433Z,18.77
2023-05-19T16:21:20.486Z,18.41
2023-05-19T16:23:47.966Z,18.71
2023-05-19T16:26:15.467Z,18.30
2023-05-19T16:28:42.932Z,18.06
2023-05-19T16:31:10.396Z,18.26
2023-05-19T16:33:37.868Z,18.17
2023-05-19T16:36:07.391Z,18.15
2023-05-19T16:38:34.936Z,17.91
2023-05-19T16:41:04.393Z,17.76
2023-05-19T16:43:33.406Z,17.70
2023-05-19T16:46:03.372Z,17.93
2023-05-19T16:48:30.983Z,18.22
2023-05-19T16:50:59.348Z,18.14
2023-05-19T16:53:28.130Z,18.13
2023-05-19T16:55:55.703Z,18.15
2023-05-19T16:58:23.141Z,17.88
2023-05-19T17:00:52.432Z,17.91
2023-05-19T17:03:20.210Z,17.71
2023-05-19T17:05:47.800Z,17.87
2023-05-19T17:08:15.237Z,18.10
2023-05-19T17:10:44.812Z,18.37
2023-05-19T17:13:12.364Z,17.41
2023-05-19T17:15:42.318Z,17.57
2023-05-19T17:18:11.692Z,17.35
2023-05-19T17:20:39.215Z,17.48
2023-05-19T17:23:06.952Z,17.71
2023-05-19T17:25:35.082Z,17.74
2023-05-19T17:28:03.952Z,17.70
2023-05-19T17:30:31.605Z,17.84
2023-05-19T17:32:59.758Z,17.68
2023-05-19T17:35:28.502Z,17.74
2023-05-19T17:37:57.856Z,17.69
2023-05-19T17:40:25.488Z,17.68
2023-05-19T17:42:52.956Z,18.13
2023-05-19T17:45:21.906Z,18.18
2023-05-19T17:47:49.485Z,18.48
2023-05-19T17:50:16.983Z,18.44
2023-05-19T17:52:45.005Z,17.60
2023-05-19T17:55:13.712Z,18.03
2023-05-19T17:57:45.193Z,17.87
2023-05-19T18:00:14.160Z,17.53
2023-05-19T18:02:43.803Z,17.63
2023-05-19T18:05:12.465Z,17.61
2023-05-19T18:07:43.067Z,17.52
2023-05-19T18:10:11.879Z,17.40
2023-05-19T18:12:39.320Z,17.51
2023-05-19T18:15:07.640Z,17.23
2023-05-19T18:17:35.137Z,17.18
2023-05-19T18:20:04.326Z,17.87
2023-05-19T18:22:40.113Z,17.25
2023-05-19T18:25:08.449Z,17.04
2023-05-19T18:27:35.894Z,17.28
2023-05-19T18:30:04.927Z,17.39
2023-05-19T18:32:35.146Z,17.42
2023-05-19T18:35:05.186Z,17.66
2023-05-19T18:37:32.810Z,17.58
2023-05-19T18:40:03.989Z,17.20
2023-05-19T18:42:31.519Z,17.28
2023-05-19T18:45:00.924Z,17.34
2023-05-19T18:47:34.815Z,17.08
2023-05-19T18:50:05.631Z,17.11
2023-05-19T18:52:35.164Z,17.28
2023-05-19T18:55:03.362Z,17.03
2023-05-19T18:57:31.020Z,17.34
2023-05-19T18:59:59.091Z,17.43
2023-05-19T19:02:26.653Z,17.64
2023-05-19T19:04:54.232Z,17.84
2023-05-19T19:07:25.263Z,16.82
2023-05-19T19:09:52.938Z,16.76
2023-05-19T19:12:20.675Z,16.80
2023-05-19T19:14:51.069Z,16.68
2023-05-19T19:17:19.153Z,17.36
2023-05-19T19:19:47.163Z,17.44
2023-05-19T19:22:14.727Z,16.84
2023-05-19T19:24:45.819Z,16.59
2023-05-19T19:27:17.800Z,16.94
2023-05-19T19:29:45.360Z,16.88
2023-05-19T19:32:12.953Z,16.87
2023-05-19T19:34:41.115Z,16.92
2023-05-19T19:37:08.706Z,16.65
2023-05-19T19:39:36.148Z,17.22
2023-05-19T19:42:05.539Z,17.30
2023-05-19T19:44:32.979Z,17.50
2023-05-19T19:47:02.952Z,17.22
2023-05-19T19:49:30.612Z,17.37
2023-05-19T19:52:01.157Z,17.20
2023-05-19T19:54:30.699Z,16.93
2023-05-19T19:57:00.427Z,17.06
2023-05-19T19:59:30.057Z,16.96
2023-05-19T20:02:00.306Z,16.82
2023-05-19T20:04:28.122Z,17.58
2023-05-19T20:06:55.621Z,17.24
2023-05-19T20:09:23.177Z,17.24
2023-05-19T20:11:50.666Z,17.26
2023-05-19T20:14:19.158Z,17.46
2023-05-19T20:16:48.141Z,16.91
2023-05-19T20:19:15.725Z,17.00
2023-05-19T20:21:43.240Z,17.33
2023-05-19T20:24:10.961Z,17.73
2023-05-19T20:26:38.434Z,16.81
2023-05-19T20:29:06.019Z,16.90
2023-05-19T20:31:33.482Z,16.93
2023-05-19T20:34:02.363Z,16.41
2023-05-19T20:36:29.877Z,16.33
2023-05-19T20:38:57.347Z,16.17
2023-05-19T20:41:24.804Z,16.50
2023-05-19T20:43:52.260Z,17.19
2023-05-19T20:46:19.747Z,17.09
2023-05-19T20:48:47.246Z,16.39
2023-05-19T20:51:16.079Z,16.83
2023-05-19T20:53:43.679Z,16.00
2023-05-19T20:56:11.329Z,16.56
2023-05-19T20:58:38.790Z,16.53
2023-05-19T21:01:06.502Z,16.42
2023-05-19T21:03:34.106Z,15.78
2023-05-19T21:06:01.641Z,15.65
2023-05-19T21:08:30.832Z,16.12
2023-05-19T21:10:59.261Z,15.88
2023-05-19T21:13:26.832Z,15.96
2023-05-19T21:15:54.287Z,16.69
2023-05-19T21:18:21.777Z,16.14
2023-05-19T21:20:49.360Z,16.59
2023-05-19T21:23:16.837Z,16.09
2023-05-19T21:25:45.701Z,16.20
2023-05-19T21:28:13.359Z,16.51
2023-05-19T21:30:41.602Z,15.63
2023-05-19T21:33:09.235Z,15.40
2023-05-19T21:35:37.848Z,15.86
2023-05-19T21:38:15.624Z,16.09
2023-05-19T21:40:52.008Z,16.05
2023-05-19T21:43:19.666Z,16.13
2023-05-19T21:45:47.126Z,16.03
2023-05-19T21:48:14.609Z,15.76
2023-05-19T21:50:42.116Z,16.08
2023-05-19T21:53:09.645Z,16.00
2023-05-19T21:55:37.097Z,16.21
2023-05-19T21:58:06.133Z,16.12
2023-05-19T22:00:34.249Z,15.45
2023-05-19T22:03:01.927Z,15.26
2023-05-19T22:05:30.322Z,15.81
2023-05-19T22:07:57.988Z,15.35
2023-05-19T22:10:25.520Z,15.85
2023-05-19T22:12:53.093Z,15.29
2023-05-19T22:15:22.049Z,15.28
2023-05-19T22:17:49.579Z,15.05
2023-05-19T22:20:17.285Z,15.07
2023-05-19T22:22:44.783Z,15.03
2023-05-19T22:25:12.219Z,15.36
2023-05-19T22:27:39.688Z,15.54
2023-05-19T22:30:08.581Z,15.96
2023-05-19T22:32:37.456Z,15.92
2023-05-19T22:35:06.585Z,15.10
2023-05-19T22:37:34.116Z,15.43
2023-05-19T22:40:01.571Z,15.52
2023-05-19T22:42:29.018Z,15.51
2023-05-19T22:44:56.474Z,15.42
2023-05-19T22:47:23.952Z,15.55
2023-05-19T22:49:54.172Z,14.97
2023-05-19T22:52:22.344Z,14.61
2023-05-19T22:54:49.794Z,14.61
2023-05-19T22:57:17.703Z,15.05
2023-05-19T22:59:45.211Z,15.11
2023-05-19T23:02:12.774Z,14.32
2023-05-19T23:04:40.289Z,14.68
2023-05-19T23:07:09.177Z,14.81
2023-05-19T23:09:36.606Z,14.94
2023-05-19T23:12:04.241Z,15.28
2023-05-19T23:14:31.731Z,15.12
2023-05-19T23:16:59.315Z,14.72
2023-05-19T23:19:28.345Z,14.18
2023-05-19T23:21:55.985Z,14.72
2023-05-19T23:24:24.778Z,15.19
2023-05-19T23:26:52.350Z,14.86
2023-05-19T23:29:19.858Z,14.60
2023-05-19T23:31:47.366Z,14.64
2023-05-19T23:34:14.863Z,14.95
2023-05-19T23:36:42.386Z,14.16
2023-05-19T23:39:09.947Z,14.46
2023-05-19T23:41:38.789Z,13.84
2023-05-19T23:44:06.496Z,14.12
2023-05-19T23:46:33.973Z,14.16
2023-05-19T23:49:01.591Z,14.41
2023-05-19T23:51:29.034Z,13.97
2023-05-19T23:53:56.495Z,14.04
2023-05-19T23:56:24.004Z,14.18
2023-05-19T23:58:52.764Z,13.93
